createdAt,value
2023-04-19T00:00:32.429Z,7.80
2023-04-19T00:03:02.352Z,8.20
2023-04-19T00:05:31.338Z,8.87
2023-04-19T00:07:59.715Z,8.73
2023-04-19T00:10:28.326Z,9.00
2023-04-19T00:12:56.781Z,8.73
2023-04-19T00:15:25.124Z,8.07
2023-04-19T00:17:53.483Z,9.50
2023-04-19T00:20:23.703Z,7.97
2023-04-19T00:22:52.040Z,9.00
2023-04-19T00:25:20.419Z,9.13
2023-04-19T00:27:48.785Z,8.87
2023-04-19T00:30:17.155Z,8.97
2023-04-19T00:32:45.451Z,9.30
2023-04-19T00:35:14.470Z,8.90
2023-04-19T00:37:44.427Z,7.87
2023-04-19T00:40:15.193Z,8.70
2023-04-19T00:42:43.804Z,8.47
2023-04-19T00:45:13.789Z,8.67
2023-04-19T00:47:42.986Z,7.53
2023-04-19T00:50:13.491Z,7.53
2023-04-19T00:52:42.078Z,7.77
2023-04-19T00:55:11.952Z,7.30
2023-04-19T00:57:40.276Z,7.60
2023-04-19T01:00:10.356Z,7.57
2023-04-19T01:02:38.795Z,7.50
2023-04-19T01:05:07.888Z,7.30
2023-04-19T01:07:36.304Z,7.53
2023-04-19T01:10:05.998Z,7.17
2023-04-19T01:12:36.000Z,7.70
2023-04-19T01:15:06.202Z,7.13
2023-04-19T01:17:35.536Z,6.40
2023-04-19T01:20:08.421Z,6.50
2023-04-19T01:22:38.633Z,6.23
2023-04-19T01:25:09.621Z,7.07
2023-04-19T01:27:37.934Z,6.43
2023-04-19T01:30:07.872Z,6.37
2023-04-19T01:32:36.298Z,6.30
2023-04-19T01:35:05.489Z,5.83
2023-04-19T01:37:38.073Z,5.80
2023-04-19T01:40:07.550Z,6.20
2023-04-19T01:42:35.844Z,5.77
2023-04-19T01:45:04.939Z,5.47
2023-04-19T01:47:33.460Z,5.10
2023-04-19T01:50:04.133Z,5.77
2023-04-19T01:52:32.531Z,5.60
2023-04-19T01:55:02.357Z,4.97
2023-04-19T01:57:31.687Z,5.23
2023-04-19T02:00:00.352Z,5.23
2023-04-19T02:02:29.291Z,5.80
2023-04-19T02:04:58.973Z,5.60
2023-04-19T02:07:28.643Z,5.80
2023-04-19T02:10:01.296Z,5.40
2023-04-19T02:12:31.201Z,5.60
2023-04-19T02:14:59.669Z,6.20
2023-04-19T02:17:36.883Z,5.13
2023-04-19T02:20:08.414Z,5.93
2023-04-19T02:22:36.759Z,6.37
2023-04-19T02:25:07.806Z,5.63
2023-04-19T02:27:36.202Z,5.90
2023-04-19T02:30:05.026Z,5.70
2023-04-19T02:32:35.202Z,5.00
2023-04-19T02:35:03.674Z,5.60
2023-04-19T02:37:32.111Z,6.60
2023-04-19T02:40:00.428Z,5.30
2023-04-19T02:42:32.182Z,6.00
2023-04-19T02:45:00.947Z,5.33
2023-04-19T02:47:29.306Z,5.20
2023-04-19T02:49:57.640Z,5.97
2023-04-19T02:52:27.953Z,5.47
2023-04-19T02:54:56.513Z,5.73
2023-04-19T02:57:25.247Z,5.63
2023-04-19T02:59:55.052Z,5.80
2023-04-19T03:02:23.663Z,5.73
2023-04-19T03:04:52.948Z,5.87
2023-04-19T03:07:21.591Z,5.97
2023-04-19T03:09:49.975Z,5.23
2023-04-19T03:12:18.304Z,6.00
2023-04-19T03:14:46.648Z,5.03
2023-04-19T03:17:16.804Z,5.40
2023-04-19T03:19:46.258Z,5.27
2023-04-19T03:22:14.651Z,5.90
2023-04-19T03:24:42.965Z,5.40
2023-04-19T03:27:19.481Z,5.53
2023-04-19T03:29:52.574Z,5.70
2023-04-19T03:32:22.461Z,5.23
2023-04-19T03:34:51.544Z,5.67
2023-04-19T03:37:19.881Z,5.73
2023-04-19T03:39:48.449Z,6.37
2023-04-19T03:42:22.625Z,4.97
2023-04-19T03:45:01.874Z,5.50
2023-04-19T03:47:33.638Z,5.20
2023-04-19T03:50:02.017Z,5.40
2023-04-19T03:52:32.277Z,5.43
2023-04-19T03:55:01.060Z,5.43
2023-04-19T03:57:39.383Z,5.30
2023-04-19T04:00:17.924Z,6.07
2023-04-19T04:02:55.905Z,5.70
2023-04-19T04:05:25.248Z,5.90
2023-04-19T04:07:53.500Z,5.13
2023-04-19T04:10:22.938Z,5.83
2023-04-19T04:12:51.322Z,4.90
2023-04-19T04:15:26.317Z,5.70
2023-04-19T04:17:57.082Z,4.97
2023-04-19T04:20:27.637Z,5.43
2023-04-19T04:23:02.603Z,5.67
2023-04-19T04:25:33.008Z,5.37
2023-04-19T04:28:04.258Z,5.13
2023-04-19T04:30:33.721Z,5.27
2023-04-19T04:33:03.815Z,5.77
2023-04-19T04:35:32.491Z,5.10
2023-04-19T04:38:21.503Z,4.93
2023-04-19T04:40:53.585Z,5.40
2023-04-19T04:43:22.799Z,4.93
2023-04-19T04:45:51.785Z,5.27
2023-04-19T04:48:21.931Z,4.93
2023-04-19T04:50:50.331Z,4.80
2023-04-19T04:53:18.951Z,4.60
2023-04-19T04:55:47.936Z,4.90
2023-04-19T04:58:16.599Z,4.93
2023-04-19T05:00:59.983Z,4.60
2023-04-19T05:03:30.966Z,4.50
2023-04-19T05:06:02.021Z,4.97
2023-04-19T05:08:31.768Z,5.03
2023-04-19T05:11:12.473Z,4.73
2023-04-19T05:13:40.894Z,4.70
2023-04-19T05:16:09.728Z,4.73
2023-04-19T05:18:40.119Z,4.23
2023-04-19T05:21:10.448Z,3.77
2023-04-19T05:23:40.128Z,4.23
2023-04-19T05:26:12.462Z,4.10
2023-04-19T05:28:42.804Z,3.50
2023-04-19T05:31:22.409Z,3.80
2023-04-19T05:34:09.761Z,4.00
2023-04-19T05:36:38.354Z,4.30
2023-04-19T05:39:06.800Z,3.50
2023-04-19T05:41:35.150Z,3.60
2023-04-19T05:44:03.552Z,3.10
2023-04-19T05:46:32.210Z,3.13
2023-04-19T05:49:00.881Z,3.27
2023-04-19T05:51:30.523Z,3.30
2023-04-19T05:54:04.866Z,3.20
2023-04-19T05:56:33.232Z,3.20
2023-04-19T05:59:01.539Z,3.10
2023-04-19T06:01:30.097Z,3.20
2023-04-19T06:03:58.924Z,2.67
2023-04-19T06:06:27.544Z,2.47
2023-04-19T06:08:57.648Z,2.83
2023-04-19T06:11:34.675Z,2.47
2023-04-19T06:14:07.550Z,2.43
2023-04-19T06:16:35.934Z,2.50
2023-04-19T06:19:04.350Z,2.20
2023-04-19T06:21:33.183Z,2.17
2023-04-19T06:24:03.487Z,2.20
2023-04-19T06:26:32.806Z,2.30
2023-04-19T06:29:01.210Z,2.17
2023-04-19T06:31:29.753Z,2.03
2023-04-19T06:33:58.121Z,2.10
2023-04-19T06:36:26.890Z,2.00
2023-04-19T06:38:55.452Z,2.20
2023-04-19T06:41:25.919Z,2.37
2023-04-19T06:43:54.282Z,2.00
2023-04-19T06:46:22.746Z,1.90
2023-04-19T06:48:51.204Z,2.40
2023-04-19T06:51:19.608Z,2.20
2023-04-19T06:53:47.868Z,2.10
2023-04-19T06:56:16.278Z,2.10
2023-04-19T06:58:45.964Z,2.10
2023-04-19T07:01:14.253Z,2.27
2023-04-19T07:03:42.788Z,2.00
2023-04-19T07:06:11.575Z,2.13
2023-04-19T07:08:49.286Z,1.80
2023-04-19T07:11:20.274Z,2.03
2023-04-19T07:13:51.237Z,1.80
2023-04-19T07:16:19.851Z,1.90
2023-04-19T07:18:48.255Z,1.70
2023-04-19T07:21:16.894Z,1.80
2023-04-19T07:23:45.391Z,1.77
2023-04-19T07:26:14.889Z,1.67
2023-04-19T07:28:43.401Z,1.60
2023-04-19T07:31:18.218Z,1.90
2023-04-19T07:33:46.847Z,1.30
2023-04-19T07:36:16.800Z,1.85
2023-04-19T07:38:45.256Z,1.63
2023-04-19T07:41:13.672Z,1.70
2023-04-19T07:43:42.285Z,1.40
2023-04-19T07:46:12.216Z,1.58
2023-04-19T07:48:41.934Z,1.90
2023-04-19T07:51:12.044Z,1.90
2023-04-19T07:53:42.525Z,1.60
2023-04-19T07:56:12.995Z,1.50
2023-04-19T07:58:42.319Z,1.30
2023-04-19T08:01:13.904Z,1.60
2023-04-19T08:03:43.730Z,1.40
2023-04-19T08:06:12.709Z,1.85
2023-04-19T08:08:41.145Z,1.50
2023-04-19T08:11:09.642Z,1.42
2023-04-19T08:13:39.962Z,1.30
2023-04-19T08:18:40.351Z,1.60
2023-04-19T08:21:10.106Z,1.55
2023-04-19T08:23:48.003Z,1.60
2023-04-19T08:26:17.005Z,1.50
2023-04-19T08:28:45.399Z,1.65
2023-04-19T08:31:13.719Z,1.40
2023-04-19T08:33:42.226Z,1.83
2023-04-19T08:36:13.806Z,1.45
2023-04-19T08:38:46.704Z,1.60
2023-04-19T08:41:20.165Z,1.63
2023-04-19T08:43:53.907Z,1.80
2023-04-19T08:46:23.504Z,1.50
2023-04-19T08:48:52.982Z,1.67
2023-04-19T08:51:23.493Z,1.70
2023-04-19T08:53:53.296Z,1.83
2023-04-19T08:56:34.567Z,1.65
2023-04-19T08:59:17.646Z,1.60
2023-04-19T09:01:47.028Z,1.70
2023-04-19T09:04:35.736Z,1.60
2023-04-19T09:07:06.134Z,1.70
2023-04-19T09:09:43.085Z,1.77
2023-04-19T09:12:18.974Z,1.83
2023-04-19T09:17:19.820Z,2.08
2023-04-19T09:19:49.388Z,1.98
2023-04-19T09:22:20.102Z,2.10
2023-04-19T09:27:29.406Z,2.10
2023-04-19T09:29:59.570Z,2.03
2023-04-19T09:32:29.021Z,2.70
2023-04-19T09:35:00.248Z,2.00
2023-04-19T09:37:56.803Z,2.00
2023-04-19T09:40:26.898Z,2.03
2023-04-19T09:45:30.833Z,2.50
2023-04-19T09:48:04.666Z,2.55
2023-04-19T09:50:34.239Z,2.63
2023-04-19T09:53:14.296Z,2.35
2023-04-19T09:55:53.441Z,2.42
2023-04-19T09:58:41.748Z,2.00
2023-04-19T10:01:17.419Z,2.60
2023-04-19T10:03:50.499Z,2.78
2023-04-19T10:08:56.576Z,2.53
2023-04-19T10:11:27.919Z,2.60
2023-04-19T10:14:02.567Z,2.47
2023-04-19T10:16:32.699Z,2.15
2023-04-19T10:19:03.224Z,2.67
2023-04-19T10:21:32.885Z,2.40
2023-04-19T10:24:03.551Z,2.38
2023-04-19T10:26:32.034Z,2.70
2023-04-19T10:29:00.445Z,2.42
2023-04-19T10:31:28.823Z,2.65
2023-04-19T10:33:57.805Z,2.28
2023-04-19T10:36:29.664Z,2.42
2023-04-19T10:38:58.093Z,2.55
2023-04-19T10:41:59.953Z,2.83
2023-04-19T10:44:28.343Z,2.53
2023-04-19T10:46:56.695Z,2.50
2023-04-19T10:49:25.218Z,2.50
2023-04-19T10:51:54.724Z,2.50
2023-04-19T10:54:31.307Z,2.95
2023-04-19T10:57:06.238Z,2.95
2023-04-19T10:59:35.302Z,2.50
2023-04-19T11:02:05.468Z,2.80
2023-04-19T11:05:01.668Z,2.45
2023-04-19T11:07:38.181Z,2.80
2023-04-19T11:10:07.699Z,2.80
2023-04-19T11:12:37.957Z,2.70
2023-04-19T11:15:10.597Z,2.63
2023-04-19T11:17:39.618Z,2.90
2023-04-19T11:20:10.827Z,2.90
2023-04-19T11:22:41.261Z,2.67
2023-04-19T11:25:13.083Z,2.92
2023-04-19T11:27:44.929Z,2.45
2023-04-19T11:30:16.602Z,2.65
2023-04-19T11:32:48.998Z,2.42
2023-04-19T11:35:21.723Z,2.88
2023-04-19T11:37:50.403Z,2.97
2023-04-19T11:40:20.726Z,2.75
2023-04-19T11:43:00.273Z,2.65
2023-04-19T11:45:34.559Z,2.40
2023-04-19T11:48:07.343Z,2.50
2023-04-19T11:50:38.809Z,2.60
2023-04-19T11:53:16.765Z,2.92
2023-04-19T11:55:51.128Z,2.50
2023-04-19T11:58:31.034Z,2.70
2023-04-19T12:01:06.101Z,2.72
2023-04-19T12:03:34.858Z,2.80
2023-04-19T12:06:05.200Z,2.67
2023-04-19T12:08:36.203Z,2.63
2023-04-19T12:11:06.905Z,2.70
2023-04-19T12:13:38.325Z,2.92
2023-04-19T12:16:07.419Z,2.88
2023-04-19T12:18:50.491Z,2.83
2023-04-19T12:21:32.010Z,3.08
2023-04-19T12:24:03.558Z,2.58
2023-04-19T12:26:32.372Z,2.63
2023-04-19T12:29:04.508Z,2.22
2023-04-19T12:31:33.561Z,2.40
2023-04-19T12:34:02.056Z,2.72
2023-04-19T12:36:30.465Z,2.55
2023-04-19T12:38:58.885Z,2.67
2023-04-19T12:41:27.247Z,1.92
2023-04-19T12:43:55.588Z,2.50
2023-04-19T12:46:25.300Z,2.33
2023-04-19T12:48:53.751Z,2.78
2023-04-19T12:51:22.227Z,2.22
2023-04-19T12:53:51.512Z,2.63
2023-04-19T12:56:20.068Z,2.30
2023-04-19T12:58:48.486Z,2.30
2023-04-19T13:01:17.086Z,2.40
2023-04-19T13:03:48.147Z,2.53
2023-04-19T13:06:17.234Z,2.28
2023-04-19T13:08:47.708Z,2.50
2023-04-19T13:11:17.664Z,2.67
2023-04-19T13:13:46.078Z,2.45
2023-04-19T13:16:14.502Z,2.47
2023-04-19T13:18:42.915Z,2.22
2023-04-19T13:21:12.789Z,2.40
2023-04-19T13:23:41.206Z,2.63
2023-04-19T13:26:09.524Z,2.70
2023-04-19T13:28:37.844Z,2.00
2023-04-19T13:31:07.052Z,2.53
2023-04-19T13:33:35.637Z,2.50
2023-04-19T13:36:04.664Z,2.30
2023-04-19T13:38:34.404Z,2.45
2023-04-19T13:41:05.148Z,2.40
2023-04-19T13:43:33.668Z,3.42
2023-04-19T13:46:02.198Z,2.88
2023-04-19T13:48:30.643Z,2.75
2023-04-19T13:51:00.395Z,2.45
2023-04-19T13:53:29.564Z,2.53
2023-04-19T13:55:59.326Z,2.45
2023-04-19T13:58:27.704Z,2.40
2023-04-19T14:00:56.116Z,2.42
2023-04-19T14:03:26.607Z,2.50
2023-04-19T14:05:55.220Z,2.65
2023-04-19T14:08:23.667Z,3.05
2023-04-19T14:10:52.253Z,2.30
2023-04-19T14:13:22.512Z,3.13
2023-04-19T14:15:51.697Z,2.42
2023-04-19T14:18:20.290Z,2.67
2023-04-19T14:20:48.912Z,2.47
2023-04-19T14:23:17.579Z,2.90
2023-04-19T14:25:46.187Z,2.38
2023-04-19T14:28:14.702Z,2.42
2023-04-19T14:30:44.566Z,2.67
2023-04-19T14:33:12.990Z,2.88
2023-04-19T14:35:42.977Z,2.80
2023-04-19T14:38:11.517Z,2.42
2023-04-19T14:40:40.034Z,2.80
2023-04-19T14:43:08.508Z,2.35
2023-04-19T14:45:36.988Z,2.20
2023-04-19T14:48:07.469Z,2.78
2023-04-19T14:50:36.075Z,2.85
2023-04-19T14:53:04.716Z,2.67
2023-04-19T14:55:33.300Z,2.55
2023-04-19T14:58:01.818Z,2.15
2023-04-19T15:00:30.405Z,2.30
2023-04-19T15:02:59.146Z,2.95
2023-04-19T15:05:29.362Z,2.30
2023-04-19T15:07:57.887Z,2.30
2023-04-19T15:10:26.417Z,2.10
2023-04-19T15:12:56.191Z,2.58
2023-04-19T15:15:24.559Z,2.80
2023-04-19T15:17:53.096Z,2.45
2023-04-19T15:20:21.906Z,2.63
2023-04-19T15:22:51.745Z,2.25
2023-04-19T15:25:22.294Z,2.30
2023-04-19T15:27:50.911Z,2.10
2023-04-19T15:30:19.621Z,2.75
2023-04-19T15:32:48.209Z,2.28
2023-04-19T15:35:16.802Z,2.47
2023-04-19T15:37:47.741Z,2.42
2023-04-19T15:40:17.584Z,2.35
2023-04-19T15:42:46.311Z,1.80
2023-04-19T15:45:15.488Z,2.53
2023-04-19T15:47:44.079Z,2.33
2023-04-19T15:50:12.602Z,2.28
2023-04-19T15:52:41.179Z,2.40
2023-04-19T15:55:10.270Z,2.35
2023-04-19T15:57:40.095Z,2.60
2023-04-19T16:00:11.893Z,1.88
2023-04-19T16:02:44.017Z,2.40
2023-04-19T16:05:12.712Z,2.60
2023-04-19T16:07:43.232Z,2.72
2023-04-19T16:10:13.001Z,2.53
2023-04-19T16:12:44.161Z,2.28
2023-04-19T16:15:13.349Z,1.98
2023-04-19T16:17:41.722Z,2.63
2023-04-19T16:20:11.208Z,2.00
2023-04-19T16:22:40.416Z,2.30
2023-04-19T16:25:10.974Z,2.17
2023-04-19T16:27:44.193Z,2.10
2023-04-19T16:30:15.109Z,2.30
2023-04-19T16:32:44.363Z,2.85
2023-04-19T16:35:18.211Z,2.63
2023-04-19T16:37:46.536Z,2.65
2023-04-19T16:40:15.029Z,2.65
2023-04-19T16:42:44.812Z,2.67
2023-04-19T16:45:13.238Z,2.22
2023-04-19T16:47:43.764Z,2.80
2023-04-19T16:50:12.616Z,2.35
2023-04-19T16:52:41.207Z,3.00
2023-04-19T16:55:10.328Z,2.60
2023-04-19T16:57:38.707Z,2.50
2023-04-19T17:00:10.718Z,2.50
2023-04-19T17:02:39.174Z,2.30
2023-04-19T17:05:09.106Z,2.53
2023-04-19T17:07:37.517Z,2.80
2023-04-19T17:10:06.865Z,2.75
2023-04-19T17:12:35.429Z,2.13
2023-04-19T17:15:04.237Z,2.72
2023-04-19T17:17:34.987Z,2.78
2023-04-19T17:20:05.270Z,2.72
2023-04-19T17:22:33.556Z,2.95
2023-04-19T17:25:01.896Z,2.92
2023-04-19T17:27:30.189Z,3.05
2023-04-19T17:29:58.591Z,3.20
2023-04-19T17:32:27.187Z,3.22
2023-04-19T17:34:56.937Z,3.63
2023-04-19T17:37:25.857Z,3.33
2023-04-19T17:39:54.237Z,3.28
2023-04-19T17:42:22.731Z,3.40
2023-04-19T17:44:51.292Z,3.10
2023-04-19T17:47:20.425Z,3.40
2023-04-19T17:49:49.096Z,3.17
2023-04-19T17:52:18.881Z,3.00
2023-04-19T17:54:49.034Z,3.70
2023-04-19T17:57:17.339Z,3.00
2023-04-19T17:59:46.673Z,3.72
2023-04-19T18:02:15.214Z,3.08
2023-04-19T18:04:45.530Z,3.10
2023-04-19T18:07:14.012Z,3.00
2023-04-19T18:09:43.697Z,3.58
2023-04-19T18:12:11.969Z,2.40
2023-04-19T18:14:40.295Z,2.60
2023-04-19T18:17:08.666Z,2.92
2023-04-19T18:19:37.544Z,2.88
2023-04-19T18:22:05.848Z,2.75
2023-04-19T18:24:34.249Z,2.67
2023-04-19T18:27:04.652Z,2.70
2023-04-19T18:29:33.025Z,3.00
2023-04-19T18:32:01.393Z,2.60
2023-04-19T18:34:29.934Z,3.20
2023-04-19T18:37:01.802Z,2.90
2023-04-19T18:39:30.228Z,3.00
2023-04-19T18:41:58.589Z,2.70
2023-04-19T18:44:49.685Z,2.70
2023-04-19T18:47:17.246Z,2.80
2023-04-19T18:49:55.819Z,2.97
2023-04-19T18:52:31.512Z,2.70
2023-04-19T18:55:00.534Z,2.90
2023-04-19T18:57:30.395Z,2.85
2023-04-19T19:00:05.867Z,2.97
2023-04-19T19:02:37.084Z,3.17
2023-04-19T19:05:08.431Z,2.80
2023-04-19T19:07:38.075Z,2.75
2023-04-19T19:10:19.241Z,3.03
2023-04-19T19:12:50.089Z,2.55
2023-04-19T19:15:20.025Z,3.00
2023-04-19T19:17:50.581Z,2.65
2023-04-19T19:20:20.626Z,2.72
2023-04-19T19:22:49.195Z,3.30
2023-04-19T19:25:17.651Z,3.03
2023-04-19T19:28:02.880Z,3.00
2023-04-19T19:30:39.609Z,3.25
2023-04-19T19:33:08.331Z,2.90
2023-04-19T19:35:36.697Z,2.95
2023-04-19T19:38:05.152Z,2.95
2023-04-19T19:40:33.489Z,3.00
2023-04-19T19:43:02.528Z,2.57
2023-04-19T19:45:32.288Z,2.70
2023-04-19T19:48:02.229Z,3.13
2023-04-19T19:53:02.573Z,2.70
2023-04-19T19:55:31.105Z,3.40
2023-04-19T20:00:45.143Z,3.10
2023-04-19T20:03:32.830Z,2.70
2023-04-19T20:06:35.626Z,2.78
2023-04-19T20:08:57.253Z,2.90
2023-04-19T20:11:26.069Z,3.57
2023-04-19T20:13:54.369Z,3.07
2023-04-19T20:16:23.249Z,2.90
2023-04-19T20:18:54.312Z,3.20
2023-04-19T20:21:22.665Z,2.90
2023-04-19T20:23:51.005Z,3.23
2023-04-19T20:26:19.314Z,3.25
2023-04-19T20:28:47.637Z,3.60
2023-04-19T20:31:15.994Z,2.83
2023-04-19T20:33:46.726Z,3.25
2023-04-19T20:36:17.830Z,3.03
2023-04-19T20:38:46.518Z,3.50
2023-04-19T20:41:14.866Z,3.60
2023-04-19T20:43:43.148Z,2.95
2023-04-19T20:46:11.623Z,3.67
2023-04-19T20:48:40.117Z,4.13
2023-04-19T20:51:08.337Z,4.28
2023-04-19T20:53:37.965Z,3.95
2023-04-19T20:56:06.322Z,3.50
2023-04-19T20:58:35.015Z,4.10
2023-04-19T21:01:03.301Z,3.73
2023-04-19T21:03:31.908Z,3.58
2023-04-19T21:06:00.331Z,4.57
2023-04-19T21:08:28.619Z,4.03
2023-04-19T21:10:58.355Z,3.70
2023-04-19T21:13:26.718Z,3.80
2023-04-19T21:15:55.038Z,4.07
2023-04-19T21:18:24.535Z,3.40
2023-04-19T21:20:52.861Z,3.83
2023-04-19T21:23:21.346Z,3.50
2023-04-19T21:25:49.824Z,2.90
2023-04-19T21:28:20.259Z,3.43
2023-04-19T21:30:48.529Z,3.20
2023-04-19T21:33:18.067Z,3.30
2023-04-19T21:35:46.657Z,3.60
2023-04-19T21:38:15.176Z,3.13
2023-04-19T21:40:43.526Z,3.47
2023-04-19T21:43:11.852Z,3.30
2023-04-19T21:45:41.686Z,3.07
2023-04-19T21:48:10.062Z,3.03
2023-04-19T21:50:38.397Z,3.40
2023-04-19T21:53:06.869Z,3.30
2023-04-19T21:55:35.411Z,2.85
2023-04-19T21:58:03.789Z,2.78
2023-04-19T22:00:32.328Z,2.70
2023-04-19T22:03:02.201Z,3.03
2023-04-19T22:05:30.669Z,2.30
2023-04-19T22:07:58.950Z,2.55
2023-04-19T22:10:27.963Z,2.90
2023-04-19T22:12:58.874Z,2.40
2023-04-19T22:15:27.900Z,2.30
2023-04-19T22:17:57.137Z,2.03
2023-04-19T22:20:27.796Z,2.90
2023-04-19T22:22:56.257Z,2.33
2023-04-19T22:25:24.570Z,2.58
2023-04-19T22:27:52.906Z,1.92
2023-04-19T22:30:21.205Z,2.88
2023-04-19T22:32:49.737Z,3.03
2023-04-19T22:35:19.126Z,2.65
2023-04-19T22:37:50.659Z,2.40
2023-04-19T22:40:20.167Z,2.30
2023-04-19T22:42:48.434Z,2.30
2023-04-19T22:45:16.932Z,2.50
2023-04-19T22:47:45.359Z,2.60
2023-04-19T22:50:13.970Z,2.78
2023-04-19T22:52:42.571Z,2.72
2023-04-19T22:55:12.743Z,2.80
2023-04-19T22:57:41.371Z,2.80
2023-04-19T23:00:11.591Z,2.10
2023-04-19T23:02:40.385Z,2.30
2023-04-19T23:05:10.118Z,2.70
2023-04-19T23:07:39.948Z,2.15
2023-04-19T23:10:10.361Z,2.28
2023-04-19T23:12:40.123Z,2.42
2023-04-19T23:15:11.059Z,2.13
2023-04-19T23:17:40.321Z,2.35
2023-04-19T23:20:11.362Z,2.60
2023-04-19T23:22:39.933Z,2.38
2023-04-19T23:25:10.477Z,2.40
2023-04-19T23:27:40.471Z,2.60
2023-04-19T23:30:09.793Z,2.00
2023-04-19T23:32:38.239Z,1.85
2023-04-19T23:35:07.387Z,2.83
2023-04-19T23:37:36.631Z,2.40
2023-04-19T23:40:06.204Z,2.43
2023-04-19T23:42:34.699Z,2.30
2023-04-19T23:45:05.133Z,2.60
2023-04-19T23:47:34.325Z,2.25
2023-04-19T23:50:02.709Z,2.33
2023-04-19T23:52:31.266Z,2.20
2023-04-19T23:54:59.570Z,3.13
2023-04-19T23:57:29.294Z,2.57
2023-04-19T23:59:57.697Z,2.80
